FW1293 Weather Reports


Display with metric or nautical units.
time (UTC)temp
F
wind
direction
speed
MPH
gust
MPH
rain 1hr
in
rain 24hr
in
rain mn
in
humidity
%
barometer
mb
20190220224507 23 166 0.0 3.0 0.00 0.00 0.00 49 1031.5
20190220223150 23 168 0.0 1.0 0.00 0.00 0.00 48 1031.6
20190220221617 23 171 1.0 2.0 0.00 0.00 0.00 48 1031.2
20190220220210 23 151 0.0 3.0 0.00 0.00 0.00 46 1031.4
20190220214624 23 163 1.0 5.0 0.00 0.00 0.00 46 1032.0
20190220213111 23 158 2.0 4.0 0.00 0.00 0.00 47 1032.3
20190220211806 24 170 0.0 3.0 0.00 0.00 0.00 48 1032.8
20190220210057 24 204 1.0 5.0 0.00 0.00 0.00 47 1032.8
20190220204558 24 169 0.0 1.0 0.00 0.00 0.00 50 1032.8
20190220203051 23 180 0.0 3.0 0.00 0.00 0.00 52 1033.1
20190220201552 23 146 0.0 3.0 0.00 0.00 0.00 52 1033.2
20190220200047 23 200 0.0 5.0 0.00 0.00 0.00 53 1033.4
20190220194521 23 150 0.0 3.0 0.00 0.00 0.00 56 1033.5
20190220193019 22 117 0.0 3.0 0.00 0.00 0.00 57 1033.7
20190220191507 22 134 1.0 4.0 0.00 0.00 0.00 58 1033.8
20190220190127 21 110 2.0 4.0 0.00 0.00 0.00 59 1034.1
20190220184710 21 157 0.0 3.0 0.00 0.00 0.00 58 1034.8
20190220183122 21 177 2.0 5.0 0.00 0.00 0.00 58 1035.3
20190220181631 21 162 0.0 6.0 0.00 0.00 0.00 59 1035.5
20190220180121 20 169 1.0 3.0 0.00 0.00 0.00 60 1035.3
20190220174616 20 115 0.0 3.0 0.00 0.00 0.00 60 1034.9
20190220173111 20 132 1.0 4.0 0.00 0.00 0.00 59 1035.0
20190220171546 20 154 2.0 6.0 0.00 0.00 0.00 59 1035.2
20190220170141 20 204 1.0 8.0 0.00 0.00 0.00 59 1035.6
20190220164542 20 117 1.0 3.0 0.00 0.00 0.00 58 1036.0
20190220163056 20 200 0.0 5.0 0.00 0.00 0.00 59 1036.2
20190220161543 18 156 3.0 7.0 0.00 0.00 0.00 61 1036.4
20190220160007 18 146 3.0 7.0 0.00 0.00 0.00 62 1036.4
20190220154506 17 134 0.0 4.0 0.00 0.00 0.00 63 1036.6
20190220153158 17 148 1.0 4.0 0.00 0.00 0.00 62 1036.7
20190220151629 17 154 0.0 4.0 0.00 0.00 0.00 63 1036.9
20190220150216 17 134 0.0 1.0 0.00 0.00 0.00 61 1037.2
20190220144612 18 165 0.0 0.0 0.00 0.00 0.00 63 1037.3
20190220143112 15 142 0.0 0.0 0.00 0.00 0.00 67 1037.7
20190220141604 12 133 0.0 0.0 0.00 0.00 0.00 70 1037.8
20190220140050 11 134 0.0 1.0 0.00 0.00 0.00 71 1037.9
20190220134530 10 15 0.0 0.0 0.00 0.00 0.00 77 1037.5
20190220133105 7 15 0.0 1.0 0.00 0.00 0.00 78 1037.7
20190220131611 7 124 0.0 0.0 0.00 0.00 0.00 79 1037.9
20190220130038 5 124 0.0 0.0 0.00 0.00 0.00 81 1038.2
20190220124536 4 124 0.0 0.0 0.00 0.00 0.00 80 1038.2
20190220123029 3 5 0.0 1.0 0.00 0.00 0.00 82 1037.7
20190220121704 2 9 0.0 0.0 0.00 0.00 0.00 82 1037.4
20190220120206 1 54 0.0 0.0 0.00 0.00 0.00 82 1037.0
20190220114619 1 55 0.0 0.0 0.00 0.00 0.00 81 1036.8
20190220113126 1 55 0.0 0.0 0.00 0.00 0.00 79 1036.7
20190220111718 2 54 0.0 1.0 0.00 0.00 0.00 80 1036.5
20190220110109 2 53 0.0 0.0 0.00 0.00 0.00 79 1036.7
20190220104546 2 115 0.0 0.0 0.00 0.00 0.00 79 1036.8
20190220103104 2 346 0.0 1.0 0.00 0.00 0.00 79 1036.8
20190220101541 2 346 0.0 1.0 0.00 0.00 0.00 78 1037.1
20190220100108 2 338 0.0 0.0 0.00 0.00 0.00 77 1037.4
20190220094555 2 316 0.0 1.0 0.00 0.00 0.00 78 1037.3
20190220093040 1 79 0.0 1.0 0.00 0.00 0.00 78 1037.4
20190220091523 1 79 0.0 0.0 0.00 0.00 0.00 74 1037.3
20190220090007 2 46 0.0 1.0 0.00 0.00 0.00 76 1037.0
20190220083231 2 327 0.0 0.0 0.00 0.00 0.00 75 1037.6
20190220081615 2 238 0.0 0.0 0.00 0.00 0.00 75 1037.6
20190220080110 2 165 0.0 0.0 0.00 0.00 0.00 73 1037.7
20190220074636 3 342 0.0 0.0 0.00 0.00 0.00 73 1037.5
20190220073129 4 342 0.0 1.0 0.00 0.00 0.00 73 1037.7
20190220071604 4 19 0.0 1.0 0.00 0.00 0.00 73 1037.8
20190220070040 3 148 0.0 0.0 0.00 0.00 0.00 73 1038.0
20190220064543 4 343 0.0 1.0 0.00 0.00 0.00 71 1038.2
20190220063032 8 16 1.0 6.0 0.00 0.00 0.00 63 1038.1
20190220061522 7 337 1.0 3.0 0.00 0.00 0.00 64 1038.2
20190220060021 6 115 2.0 4.0 0.00 0.00 0.00 66 1037.9
20190220053019 6 78 2.0 3.0 0.00 0.00 0.00 65 1038.0
20190220051614 7 25 1.0 3.0 0.00 0.00 0.00 64 1037.7
20190220050159 6 58 0.0 0.0 0.00 0.00 0.00 68 1037.4
20190220044733 6 342 0.0 1.0 0.00 0.00 0.00 68 1037.5
20190220043309 6 9 0.0 1.0 0.00 0.00 0.00 67 1037.4
20190220041624 6 340 0.0 1.0 0.00 0.00 0.00 68 1037.8
20190220040113 6 342 0.0 1.0 0.00 0.00 0.00 68 1037.5
20190220034549 6 64 0.0 1.0 0.00 0.00 0.00 67 1037.8
20190220033103 6 169 0.0 0.0 0.00 0.00 0.00 66 1038.2
20190220031541 7 206 0.0 3.0 0.00 0.00 0.00 65 1037.9
20190220030137 7 163 0.0 0.0 0.00 0.00 0.00 63 1037.8
20190220024523 9 79 0.0 1.0 0.00 0.00 0.00 65 1037.7
20190220021521 7 20 0.0 1.0 0.00 0.00 0.00 67 1037.8
20190220020001 6 5 0.0 1.0 0.00 0.00 0.00 66 1038.0
20190220014740 6 147 0.0 1.0 0.00 0.00 0.00 67 1037.9
20190220013130 7 146 0.0 0.0 0.00 0.00 0.00 66 1037.9
20190220011721 7 194 0.0 0.0 0.00 0.00 0.00 66 1037.7
20190220010128 7 325 0.0 1.0 0.00 0.00 0.00 67 1037.7
20190220004615 8 298 0.0 0.0 0.00 0.00 0.00 66 1037.5
20190220003136 8 339 0.0 1.0 0.00 0.00 0.00 67 1037.4
20190220001636 8 33 0.0 1.0 0.00 0.00 0.00 66 1037.3
20190220000047 9 57 0.0 0.0 0.00 0.00 0.00 65 1037.3
20190219234533 9 355 0.0 1.0 0.00 0.00 0.00 64 1037.0
20190219233109 9 13 0.0 1.0 0.00 0.00 0.00 63 1036.7
20190219231541 10 319 0.0 1.0 0.00 0.00 0.00 62 1036.3